sensor_id;sensor_type;location;lat;lon;timestamp;temperature;humidity
2723;DHT22;1369;53.216;10.396;2022-08-25T00:00:11;18.60;99.90
2723;DHT22;1369;53.216;10.396;2022-08-25T00:02:37;18.60;99.90
2723;DHT22;1369;53.216;10.396;2022-08-25T00:05:03;18.50;99.90
2723;DHT22;1369;53.216;10.396;2022-08-25T00:07:29;18.60;99.90
2723;DHT22;1369;53.216;10.396;2022-08-25T00:09:55;18.50;99.90
2723;DHT22;1369;53.216;10.396;2022-08-25T00:12:21;18.50;99.90
2723;DHT22;1369;53.216;10.396;2022-08-25T00:14:46;18.40;99.90
2723;DHT22;1369;53.216;10.396;2022-08-25T00:17:12;18.40;99.90
2723;DHT22;1369;53.216;10.396;2022-08-25T00:19:37;18.40;99.90
2723;DHT22;1369;53.216;10.396;2022-08-25T00:22:04;18.40;99.90
2723;DHT22;1369;53.216;10.396;2022-08-25T00:24:32;18.40;99.90
2723;DHT22;1369;53.216;10.396;2022-08-25T00:26:58;18.30;99.90
2723;DHT22;1369;53.216;10.396;2022-08-25T00:29:26;18.30;99.90
2723;DHT22;1369;53.216;10.396;2022-08-25T00:31:52;18.30;99.90
2723;DHT22;1369;53.216;10.396;2022-08-25T00:34:30;18.20;99.90
2723;DHT22;1369;53.216;10.396;2022-08-25T00:36:58;18.20;99.90
2723;DHT22;1369;53.216;10.396;2022-08-25T00:39:24;18.20;99.90
2723;DHT22;1369;53.216;10.396;2022-08-25T00:41:53;18.10;99.90
2723;DHT22;1369;53.216;10.396;2022-08-25T00:44:21;18.10;99.90
2723;DHT22;1369;53.216;10.396;2022-08-25T00:46:53;18.00;99.90
2723;DHT22;1369;53.216;10.396;2022-08-25T00:49:26;18.00;99.90
2723;DHT22;1369;53.216;10.396;2022-08-25T00:52:02;18.00;99.90
2723;DHT22;1369;53.216;10.396;2022-08-25T00:54:34;18.00;99.90
2723;DHT22;1369;53.216;10.396;2022-08-25T00:57:03;18.00;99.90
2723;DHT22;1369;53.216;10.396;2022-08-25T00:59:29;18.00;99.90
2723;DHT22;1369;53.216;10.396;2022-08-25T01:01:56;18.00;99.90
2723;DHT22;1369;53.216;10.396;2022-08-25T01:04:23;18.00;99.90
2723;DHT22;1369;53.216;10.396;2022-08-25T01:06:50;18.00;99.90
2723;DHT22;1369;53.216;10.396;2022-08-25T01:09:18;18.00;99.90
2723;DHT22;1369;53.216;10.396;2022-08-25T01:11:45;18.00;99.90
2723;DHT22;1369;53.216;10.396;2022-08-25T01:14:14;18.00;99.90
2723;DHT22;1369;53.216;10.396;2022-08-25T01:16:40;18.10;99.90
2723;DHT22;1369;53.216;10.396;2022-08-25T01:19:08;18.10;99.90
2723;DHT22;1369;53.216;10.396;2022-08-25T01:21:43;18.00;99.90
2723;DHT22;1369;53.216;10.396;2022-08-25T01:24:10;18.00;99.90
2723;DHT22;1369;53.216;10.396;2022-08-25T01:26:38;18.00;99.90
2723;DHT22;1369;53.216;10.396;2022-08-25T01:29:06;18.00;99.90
2723;DHT22;1369;53.216;10.396;2022-08-25T01:31:48;17.90;99.90
2723;DHT22;1369;53.216;10.396;2022-08-25T01:34:15;17.90;99.90
2723;DHT22;1369;53.216;10.396;2022-08-25T01:36:43;17.90;99.90
2723;DHT22;1369;53.216;10.396;2022-08-25T01:39:09;17.90;99.90
2723;DHT22;1369;53.216;10.396;2022-08-25T01:44:24;17.90;99.90
2723;DHT22;1369;53.216;10.396;2022-08-25T01:46:51;17.90;99.90
2723;DHT22;1369;53.216;10.396;2022-08-25T01:49:17;17.80;99.90
2723;DHT22;1369;53.216;10.396;2022-08-25T01:51:50;17.80;99.90
2723;DHT22;1369;53.216;10.396;2022-08-25T01:54:16;17.80;99.90
2723;DHT22;1369;53.216;10.396;2022-08-25T01:56:42;17.80;99.90
2723;DHT22;1369;53.216;10.396;2022-08-25T01:59:07;17.80;99.90
2723;DHT22;1369;53.216;10.396;2022-08-25T02:01:33;17.70;99.90
2723;DHT22;1369;53.216;10.396;2022-08-25T02:03:59;17.70;99.90
2723;DHT22;1369;53.216;10.396;2022-08-25T02:06:29;17.70;99.90
2723;DHT22;1369;53.216;10.396;2022-08-25T02:08:59;17.70;99.90
2723;DHT22;1369;53.216;10.396;2022-08-25T02:11:26;17.80;99.90
2723;DHT22;1369;53.216;10.396;2022-08-25T02:13:52;17.80;99.90
2723;DHT22;1369;53.216;10.396;2022-08-25T02:16:25;17.70;99.90
2723;DHT22;1369;53.216;10.396;2022-08-25T02:18:53;17.70;99.90
2723;DHT22;1369;53.216;10.396;2022-08-25T02:21:19;17.70;99.90
2723;DHT22;1369;53.216;10.396;2022-08-25T02:23:45;17.60;99.90
2723;DHT22;1369;53.216;10.396;2022-08-25T02:26:11;17.60;99.90
2723;DHT22;1369;53.216;10.396;2022-08-25T02:28:36;17.50;99.90
2723;DHT22;1369;53.216;10.396;2022-08-25T02:31:04;17.50;99.90
2723;DHT22;1369;53.216;10.396;2022-08-25T02:33:29;17.50;99.90
2723;DHT22;1369;53.216;10.396;2022-08-25T02:35:57;17.40;99.90
2723;DHT22;1369;53.216;10.396;2022-08-25T02:38:23;17.40;99.90
2723;DHT22;1369;53.216;10.396;2022-08-25T02:40:49;17.40;99.90
2723;DHT22;1369;53.216;10.396;2022-08-25T02:43:16;17.40;99.90
2723;DHT22;1369;53.216;10.396;2022-08-25T02:45:41;17.40;99.90
2723;DHT22;1369;53.216;10.396;2022-08-25T02:48:07;17.40;99.90
2723;DHT22;1369;53.216;10.396;2022-08-25T02:50:32;17.40;99.90
2723;DHT22;1369;53.216;10.396;2022-08-25T02:52:58;17.40;99.90
2723;DHT22;1369;53.216;10.396;2022-08-25T02:55:24;17.40;99.90
2723;DHT22;1369;53.216;10.396;2022-08-25T02:57:49;17.30;99.90
2723;DHT22;1369;53.216;10.396;2022-08-25T03:00:16;17.30;99.90
2723;DHT22;1369;53.216;10.396;2022-08-25T03:02:42;17.30;99.90
2723;DHT22;1369;53.216;10.396;2022-08-25T03:05:09;17.30;99.90
2723;DHT22;1369;53.216;10.396;2022-08-25T03:07:36;17.20;99.90
2723;DHT22;1369;53.216;10.396;2022-08-25T03:10:12;17.20;99.90
2723;DHT22;1369;53.216;10.396;2022-08-25T03:12:38;17.20;99.90
2723;DHT22;1369;53.216;10.396;2022-08-25T03:15:07;17.20;99.90
2723;DHT22;1369;53.216;10.396;2022-08-25T03:17:32;17.20;99.90
2723;DHT22;1369;53.216;10.396;2022-08-25T03:19:58;17.20;99.90
2723;DHT22;1369;53.216;10.396;2022-08-25T03:22:23;17.20;99.90
2723;DHT22;1369;53.216;10.396;2022-08-25T03:24:49;17.20;99.90
2723;DHT22;1369;53.216;10.396;2022-08-25T03:27:14;17.20;99.90
2723;DHT22;1369;53.216;10.396;2022-08-25T03:29:40;17.20;99.90
2723;DHT22;1369;53.216;10.396;2022-08-25T03:32:07;17.10;99.90
2723;DHT22;1369;53.216;10.396;2022-08-25T03:34:33;17.10;99.90
2723;DHT22;1369;53.216;10.396;2022-08-25T03:36:59;17.10;99.90
2723;DHT22;1369;53.216;10.396;2022-08-25T03:39:25;17.10;99.90
2723;DHT22;1369;53.216;10.396;2022-08-25T03:41:52;17.10;99.90
2723;DHT22;1369;53.216;10.396;2022-08-25T03:44:19;17.10;99.90
2723;DHT22;1369;53.216;10.396;2022-08-25T03:46:47;17.00;99.90
2723;DHT22;1369;53.216;10.396;2022-08-25T03:49:19;17.00;99.90
2723;DHT22;1369;53.216;10.396;2022-08-25T03:51:47;17.00;99.90
2723;DHT22;1369;53.216;10.396;2022-08-25T03:54:15;16.90;99.90
2723;DHT22;1369;53.216;10.396;2022-08-25T03:56:41;16.90;99.90
2723;DHT22;1369;53.216;10.396;2022-08-25T03:59:07;16.90;99.90
2723;DHT22;1369;53.216;10.396;2022-08-25T04:01:38;16.90;99.90
2723;DHT22;1369;53.216;10.396;2022-08-25T04:04:04;16.90;99.90
2723;DHT22;1369;53.216;10.396;2022-08-25T04:06:31;16.90;99.90
2723;DHT22;1369;53.216;10.396;2022-08-25T04:08:57;16.90;99.90
2723;DHT22;1369;53.216;10.396;2022-08-25T04:11:23;16.90;99.90
2723;DHT22;1369;53.216;10.396;2022-08-25T04:13:50;16.90;99.90
2723;DHT22;1369;53.216;10.396;2022-08-25T04:18:44;16.80;99.90
2723;DHT22;1369;53.216;10.396;2022-08-25T04:21:10;16.80;99.90
2723;DHT22;1369;53.216;10.396;2022-08-25T04:23:38;16.80;99.90
2723;DHT22;1369;53.216;10.396;2022-08-25T04:26:23;16.80;99.90
2723;DHT22;1369;53.216;10.396;2022-08-25T04:28:49;16.80;99.90
2723;DHT22;1369;53.216;10.396;2022-08-25T04:31:17;16.80;99.90
2723;DHT22;1369;53.216;10.396;2022-08-25T04:33:42;16.80;99.90
2723;DHT22;1369;53.216;10.396;2022-08-25T04:36:09;16.80;99.90
2723;DHT22;1369;53.216;10.396;2022-08-25T04:38:36;16.90;99.90
2723;DHT22;1369;53.216;10.396;2022-08-25T04:41:03;16.90;99.90
2723;DHT22;1369;53.216;10.396;2022-08-25T04:43:31;16.90;99.90
2723;DHT22;1369;53.216;10.396;2022-08-25T04:45:57;17.00;99.90
2723;DHT22;1369;53.216;10.396;2022-08-25T04:48:25;17.00;99.90
2723;DHT22;1369;53.216;10.396;2022-08-25T04:50:50;17.00;99.90
2723;DHT22;1369;53.216;10.396;2022-08-25T04:53:17;17.00;99.90
2723;DHT22;1369;53.216;10.396;2022-08-25T04:55:44;17.00;99.90
2723;DHT22;1369;53.216;10.396;2022-08-25T04:58:11;17.00;99.90
2723;DHT22;1369;53.216;10.396;2022-08-25T05:00:38;17.00;99.90
2723;DHT22;1369;53.216;10.396;2022-08-25T05:03:04;17.00;99.90
2723;DHT22;1369;53.216;10.396;2022-08-25T05:05:30;17.00;99.90
2723;DHT22;1369;53.216;10.396;2022-08-25T05:07:56;17.00;99.90
2723;DHT22;1369;53.216;10.396;2022-08-25T05:10:22;17.10;99.90
2723;DHT22;1369;53.216;10.396;2022-08-25T05:12:48;17.20;99.90
2723;DHT22;1369;53.216;10.396;2022-08-25T05:15:14;17.20;99.90
2723;DHT22;1369;53.216;10.396;2022-08-25T05:17:58;17.30;99.90
2723;DHT22;1369;53.216;10.396;2022-08-25T05:20:24;17.30;99.90
2723;DHT22;1369;53.216;10.396;2022-08-25T05:22:49;17.40;99.90
2723;DHT22;1369;53.216;10.396;2022-08-25T05:25:15;17.40;99.90
2723;DHT22;1369;53.216;10.396;2022-08-25T05:27:41;17.50;99.90
2723;DHT22;1369;53.216;10.396;2022-08-25T05:30:10;17.60;99.90
2723;DHT22;1369;53.216;10.396;2022-08-25T05:32:37;17.70;99.90
2723;DHT22;1369;53.216;10.396;2022-08-25T05:35:03;17.70;99.90
2723;DHT22;1369;53.216;10.396;2022-08-25T05:37:29;17.80;99.90
2723;DHT22;1369;53.216;10.396;2022-08-25T05:39:55;18.00;99.90
2723;DHT22;1369;53.216;10.396;2022-08-25T05:42:20;18.20;99.90
2723;DHT22;1369;53.216;10.396;2022-08-25T05:44:47;18.40;99.90
2723;DHT22;1369;53.216;10.396;2022-08-25T05:47:12;18.60;99.90
2723;DHT22;1369;53.216;10.396;2022-08-25T05:49:38;18.70;99.90
2723;DHT22;1369;53.216;10.396;2022-08-25T05:52:03;18.80;99.90
2723;DHT22;1369;53.216;10.396;2022-08-25T05:54:29;18.90;99.90
2723;DHT22;1369;53.216;10.396;2022-08-25T05:56:56;19.00;99.90
2723;DHT22;1369;53.216;10.396;2022-08-25T05:59:22;19.00;99.90
2723;DHT22;1369;53.216;10.396;2022-08-25T06:01:48;19.20;99.90
2723;DHT22;1369;53.216;10.396;2022-08-25T06:04:32;19.30;99.90
2723;DHT22;1369;53.216;10.396;2022-08-25T06:06:58;19.20;99.90
2723;DHT22;1369;53.216;10.396;2022-08-25T06:09:23;19.30;99.90
2723;DHT22;1369;53.216;10.396;2022-08-25T06:11:49;19.40;99.90
2723;DHT22;1369;53.216;10.396;2022-08-25T06:14:15;19.60;99.90
2723;DHT22;1369;53.216;10.396;2022-08-25T06:16:41;19.70;99.90
2723;DHT22;1369;53.216;10.396;2022-08-25T06:19:08;19.70;99.90
2723;DHT22;1369;53.216;10.396;2022-08-25T06:21:34;19.80;99.90
2723;DHT22;1369;53.216;10.396;2022-08-25T06:24:00;19.80;99.90
2723;DHT22;1369;53.216;10.396;2022-08-25T06:26:25;19.80;99.90
2723;DHT22;1369;53.216;10.396;2022-08-25T06:28:51;19.80;99.90
2723;DHT22;1369;53.216;10.396;2022-08-25T06:31:18;19.90;99.90
2723;DHT22;1369;53.216;10.396;2022-08-25T06:33:44;20.00;99.90
2723;DHT22;1369;53.216;10.396;2022-08-25T06:36:10;20.00;99.90
2723;DHT22;1369;53.216;10.396;2022-08-25T06:38:35;20.00;99.90
2723;DHT22;1369;53.216;10.396;2022-08-25T06:41:06;20.10;99.90
2723;DHT22;1369;53.216;10.396;2022-08-25T06:43:32;20.10;99.90
2723;DHT22;1369;53.216;10.396;2022-08-25T06:46:25;20.10;99.90
2723;DHT22;1369;53.216;10.396;2022-08-25T06:48:52;20.10;99.90
2723;DHT22;1369;53.216;10.396;2022-08-25T06:51:20;20.10;99.90
2723;DHT22;1369;53.216;10.396;2022-08-25T06:53:47;20.20;99.90
2723;DHT22;1369;53.216;10.396;2022-08-25T06:56:14;20.10;99.90
2723;DHT22;1369;53.216;10.396;2022-08-25T06:58:40;20.10;99.90
2723;DHT22;1369;53.216;10.396;2022-08-25T07:01:12;20.20;99.90
2723;DHT22;1369;53.216;10.396;2022-08-25T07:03:38;20.40;99.90
2723;DHT22;1369;53.216;10.396;2022-08-25T07:06:04;20.40;99.90
2723;DHT22;1369;53.216;10.396;2022-08-25T07:08:30;20.30;99.90
2723;DHT22;1369;53.216;10.396;2022-08-25T07:10:57;20.30;99.90
2723;DHT22;1369;53.216;10.396;2022-08-25T07:13:23;20.40;99.90
2723;DHT22;1369;53.216;10.396;2022-08-25T07:15:52;20.50;99.90
2723;DHT22;1369;53.216;10.396;2022-08-25T07:18:18;20.50;99.90
2723;DHT22;1369;53.216;10.396;2022-08-25T07:20:44;20.60;99.90
2723;DHT22;1369;53.216;10.396;2022-08-25T07:23:10;20.60;99.90
2723;DHT22;1369;53.216;10.396;2022-08-25T07:25:35;20.60;99.90
2723;DHT22;1369;53.216;10.396;2022-08-25T07:28:02;20.70;99.90
2723;DHT22;1369;53.216;10.396;2022-08-25T07:30:27;20.70;99.90
2723;DHT22;1369;53.216;10.396;2022-08-25T07:32:53;20.70;99.90
2723;DHT22;1369;53.216;10.396;2022-08-25T07:35:19;20.60;99.90
2723;DHT22;1369;53.216;10.396;2022-08-25T07:37:49;20.50;99.90
2723;DHT22;1369;53.216;10.396;2022-08-25T07:40:21;20.50;99.90
2723;DHT22;1369;53.216;10.396;2022-08-25T07:42:53;20.60;99.90
2723;DHT22;1369;53.216;10.396;2022-08-25T07:45:20;20.60;99.90
2723;DHT22;1369;53.216;10.396;2022-08-25T07:47:49;20.50;99.90
2723;DHT22;1369;53.216;10.396;2022-08-25T07:50:18;20.60;99.90
2723;DHT22;1369;53.216;10.396;2022-08-25T07:52:44;20.60;99.90
2723;DHT22;1369;53.216;10.396;2022-08-25T07:55:10;20.70;99.90
2723;DHT22;1369;53.216;10.396;2022-08-25T07:57:38;20.50;99.90
2723;DHT22;1369;53.216;10.396;2022-08-25T08:00:04;20.60;99.90
2723;DHT22;1369;53.216;10.396;2022-08-25T08:02:31;20.60;99.90
2723;DHT22;1369;53.216;10.396;2022-08-25T08:04:56;20.80;99.90
2723;DHT22;1369;53.216;10.396;2022-08-25T08:07:24;21.00;99.90
2723;DHT22;1369;53.216;10.396;2022-08-25T08:09:51;21.20;99.90
2723;DHT22;1369;53.216;10.396;2022-08-25T08:12:17;21.40;99.90
2723;DHT22;1369;53.216;10.396;2022-08-25T08:14:43;21.50;99.90
2723;DHT22;1369;53.216;10.396;2022-08-25T08:17:10;21.60;99.90
2723;DHT22;1369;53.216;10.396;2022-08-25T08:19:36;21.60;99.90
2723;DHT22;1369;53.216;10.396;2022-08-25T08:22:03;21.70;99.90
2723;DHT22;1369;53.216;10.396;2022-08-25T08:24:30;21.70;99.90
2723;DHT22;1369;53.216;10.396;2022-08-25T08:26:57;21.70;99.90
2723;DHT22;1369;53.216;10.396;2022-08-25T08:29:22;21.70;99.90
2723;DHT22;1369;53.216;10.396;2022-08-25T08:31:48;21.70;99.90
2723;DHT22;1369;53.216;10.396;2022-08-25T08:34:14;21.60;99.90
2723;DHT22;1369;53.216;10.396;2022-08-25T08:36:40;21.70;99.90
2723;DHT22;1369;53.216;10.396;2022-08-25T08:39:05;21.80;99.90
2723;DHT22;1369;53.216;10.396;2022-08-25T08:44:33;21.90;99.90
2723;DHT22;1369;53.216;10.396;2022-08-25T08:49:56;22.20;99.90
2723;DHT22;1369;53.216;10.396;2022-08-25T08:52:45;22.30;99.90
2723;DHT22;1369;53.216;10.396;2022-08-25T08:55:33;22.40;99.90
2723;DHT22;1369;53.216;10.396;2022-08-25T08:58:04;22.20;99.90
2723;DHT22;1369;53.216;10.396;2022-08-25T09:00:32;22.20;99.90
2723;DHT22;1369;53.216;10.396;2022-08-25T09:03:05;22.40;99.90
2723;DHT22;1369;53.216;10.396;2022-08-25T09:05:36;22.60;99.90
2723;DHT22;1369;53.216;10.396;2022-08-25T09:08:07;22.80;99.90
2723;DHT22;1369;53.216;10.396;2022-08-25T09:22:24;23.60;99.90
2723;DHT22;1369;53.216;10.396;2022-08-25T09:25:16;23.00;99.90
2723;DHT22;1369;53.216;10.396;2022-08-25T09:27:50;23.20;99.90
2723;DHT22;1369;53.216;10.396;2022-08-25T09:30:19;23.50;99.90
2723;DHT22;1369;53.216;10.396;2022-08-25T09:32:54;23.70;99.90
2723;DHT22;1369;53.216;10.396;2022-08-25T09:35:32;23.70;99.90
2723;DHT22;1369;53.216;10.396;2022-08-25T09:40:27;24.00;99.90
2723;DHT22;1369;53.216;10.396;2022-08-25T09:42:55;24.30;99.90
2723;DHT22;1369;53.216;10.396;2022-08-25T09:45:43;24.70;99.90
2723;DHT22;1369;53.216;10.396;2022-08-25T09:48:27;25.20;99.90
2723;DHT22;1369;53.216;10.396;2022-08-25T09:51:00;25.40;99.90
2723;DHT22;1369;53.216;10.396;2022-08-25T09:53:27;25.40;99.90
2723;DHT22;1369;53.216;10.396;2022-08-25T09:56:02;25.20;99.90
2723;DHT22;1369;53.216;10.396;2022-08-25T09:58:29;25.60;99.90
2723;DHT22;1369;53.216;10.396;2022-08-25T10:03:27;26.40;99.90
2723;DHT22;1369;53.216;10.396;2022-08-25T10:08:34;27.10;99.90
2723;DHT22;1369;53.216;10.396;2022-08-25T10:11:03;26.80;99.90
2723;DHT22;1369;53.216;10.396;2022-08-25T10:13:48;26.60;99.90
2723;DHT22;1369;53.216;10.396;2022-08-25T10:16:24;26.60;99.90
2723;DHT22;1369;53.216;10.396;2022-08-25T10:22:02;27.10;99.90
2723;DHT22;1369;53.216;10.396;2022-08-25T10:24:27;27.40;99.90
2723;DHT22;1369;53.216;10.396;2022-08-25T10:27:19;27.70;99.90
2723;DHT22;1369;53.216;10.396;2022-08-25T10:30:03;28.00;99.90
2723;DHT22;1369;53.216;10.396;2022-08-25T10:32:49;28.00;99.90
2723;DHT22;1369;53.216;10.396;2022-08-25T10:35:22;28.10;99.90
2723;DHT22;1369;53.216;10.396;2022-08-25T10:43:42;27.70;99.90
2723;DHT22;1369;53.216;10.396;2022-08-25T10:46:45;27.70;99.90
2723;DHT22;1369;53.216;10.396;2022-08-25T10:49:28;27.60;99.90
2723;DHT22;1369;53.216;10.396;2022-08-25T11:00:36;27.40;99.90
2723;DHT22;1369;53.216;10.396;2022-08-25T11:05:44;27.30;99.90
2723;DHT22;1369;53.216;10.396;2022-08-25T11:08:29;27.40;99.90
2723;DHT22;1369;53.216;10.396;2022-08-25T11:16:17;27.80;99.90
2723;DHT22;1369;53.216;10.396;2022-08-25T11:18:54;28.10;99.90
2723;DHT22;1369;53.216;10.396;2022-08-25T11:27:00;28.30;99.90
2723;DHT22;1369;53.216;10.396;2022-08-25T11:29:31;28.40;99.90
2723;DHT22;1369;53.216;10.396;2022-08-25T11:31:59;28.50;99.90
2723;DHT22;1369;53.216;10.396;2022-08-25T11:34:29;28.60;99.90
2723;DHT22;1369;53.216;10.396;2022-08-25T11:37:02;28.60;99.90
2723;DHT22;1369;53.216;10.396;2022-08-25T11:45:36;28.50;99.90
2723;DHT22;1369;53.216;10.396;2022-08-25T11:50:59;28.10;99.90
2723;DHT22;1369;53.216;10.396;2022-08-25T11:53:37;28.00;99.90
2723;DHT22;1369;53.216;10.396;2022-08-25T11:56:10;28.10;99.90
2723;DHT22;1369;53.216;10.396;2022-08-25T11:58:46;28.10;99.90
2723;DHT22;1369;53.216;10.396;2022-08-25T12:04:35;28.50;99.90
2723;DHT22;1369;53.216;10.396;2022-08-25T12:12:35;28.70;99.90
2723;DHT22;1369;53.216;10.396;2022-08-25T12:17:47;29.10;99.90
2723;DHT22;1369;53.216;10.396;2022-08-25T12:26:15;29.30;99.90
2723;DHT22;1369;53.216;10.396;2022-08-25T12:28:45;29.50;99.90
2723;DHT22;1369;53.216;10.396;2022-08-25T12:33:57;29.50;99.90
2723;DHT22;1369;53.216;10.396;2022-08-25T12:36:31;29.80;99.90
2723;DHT22;1369;53.216;10.396;2022-08-25T12:39:13;29.80;99.90
2723;DHT22;1369;53.216;10.396;2022-08-25T12:41:53;29.90;99.90
2723;DHT22;1369;53.216;10.396;2022-08-25T12:44:34;29.70;99.90
2723;DHT22;1369;53.216;10.396;2022-08-25T12:47:12;29.80;99.90
2723;DHT22;1369;53.216;10.396;2022-08-25T12:49:38;29.80;99.90
2723;DHT22;1369;53.216;10.396;2022-08-25T12:52:17;29.80;99.90
2723;DHT22;1369;53.216;10.396;2022-08-25T12:54:56;29.90;99.90
2723;DHT22;1369;53.216;10.396;2022-08-25T12:57:38;30.00;99.90
2723;DHT22;1369;53.216;10.396;2022-08-25T13:00:19;30.00;99.90
2723;DHT22;1369;53.216;10.396;2022-08-25T13:12:16;29.50;99.90
2723;DHT22;1369;53.216;10.396;2022-08-25T13:14:45;29.60;99.90
2723;DHT22;1369;53.216;10.396;2022-08-25T13:17:35;29.70;99.90
2723;DHT22;1369;53.216;10.396;2022-08-25T13:20:25;29.70;99.90
2723;DHT22;1369;53.216;10.396;2022-08-25T13:22:56;29.70;99.90
2723;DHT22;1369;53.216;10.396;2022-08-25T13:25:26;29.70;99.90
2723;DHT22;1369;53.216;10.396;2022-08-25T13:27:56;29.60;99.90
2723;DHT22;1369;53.216;10.396;2022-08-25T13:30:31;29.50;99.90
2723;DHT22;1369;53.216;10.396;2022-08-25T13:32:58;29.30;99.90
2723;DHT22;1369;53.216;10.396;2022-08-25T13:35:27;29.20;99.90
2723;DHT22;1369;53.216;10.396;2022-08-25T13:37:53;29.20;99.90
2723;DHT22;1369;53.216;10.396;2022-08-25T13:42:47;29.20;99.90
2723;DHT22;1369;53.216;10.396;2022-08-25T13:45:16;29.30;99.90
2723;DHT22;1369;53.216;10.396;2022-08-25T13:47:43;29.40;99.90
2723;DHT22;1369;53.216;10.396;2022-08-25T13:53:15;29.50;99.90
2723;DHT22;1369;53.216;10.396;2022-08-25T13:55:48;29.40;99.90
2723;DHT22;1369;53.216;10.396;2022-08-25T13:58:18;29.20;99.90
2723;DHT22;1369;53.216;10.396;2022-08-25T14:00:48;29.00;99.90
2723;DHT22;1369;53.216;10.396;2022-08-25T14:03:36;28.90;99.90
2723;DHT22;1369;53.216;10.396;2022-08-25T14:08:38;28.70;99.90
2723;DHT22;1369;53.216;10.396;2022-08-25T14:11:26;28.50;99.90
2723;DHT22;1369;53.216;10.396;2022-08-25T14:14:06;28.40;99.90
2723;DHT22;1369;53.216;10.396;2022-08-25T14:16:45;28.30;99.90
2723;DHT22;1369;53.216;10.396;2022-08-25T14:19:15;28.20;99.90
2723;DHT22;1369;53.216;10.396;2022-08-25T14:21:41;28.10;99.90
2723;DHT22;1369;53.216;10.396;2022-08-25T14:24:07;28.20;99.90
2723;DHT22;1369;53.216;10.396;2022-08-25T14:26:33;28.40;99.90
2723;DHT22;1369;53.216;10.396;2022-08-25T14:28:58;28.70;99.90
2723;DHT22;1369;53.216;10.396;2022-08-25T14:31:25;29.00;99.90
2723;DHT22;1369;53.216;10.396;2022-08-25T14:33:57;29.20;99.90
2723;DHT22;1369;53.216;10.396;2022-08-25T14:36:23;29.20;99.90
2723;DHT22;1369;53.216;10.396;2022-08-25T14:38:49;29.10;99.90
2723;DHT22;1369;53.216;10.396;2022-08-25T14:41:14;28.90;99.90
2723;DHT22;1369;53.216;10.396;2022-08-25T14:43:40;28.80;99.90
2723;DHT22;1369;53.216;10.396;2022-08-25T14:46:16;28.70;99.90
2723;DHT22;1369;53.216;10.396;2022-08-25T14:48:44;28.30;99.90
2723;DHT22;1369;53.216;10.396;2022-08-25T14:51:12;28.20;99.90
2723;DHT22;1369;53.216;10.396;2022-08-25T14:53:39;28.10;99.90
2723;DHT22;1369;53.216;10.396;2022-08-25T14:56:05;28.10;99.90
2723;DHT22;1369;53.216;10.396;2022-08-25T14:58:30;28.10;99.90
2723;DHT22;1369;53.216;10.396;2022-08-25T15:00:57;28.20;99.90
2723;DHT22;1369;53.216;10.396;2022-08-25T15:03:38;28.20;99.90
2723;DHT22;1369;53.216;10.396;2022-08-25T15:06:06;28.20;99.90
2723;DHT22;1369;53.216;10.396;2022-08-25T15:08:31;28.10;99.90
2723;DHT22;1369;53.216;10.396;2022-08-25T15:11:16;28.10;99.90
2723;DHT22;1369;53.216;10.396;2022-08-25T15:13:42;28.00;99.90
2723;DHT22;1369;53.216;10.396;2022-08-25T15:16:26;28.00;99.90
2723;DHT22;1369;53.216;10.396;2022-08-25T15:18:52;28.00;99.90
2723;DHT22;1369;53.216;10.396;2022-08-25T15:21:17;28.00;99.90
2723;DHT22;1369;53.216;10.396;2022-08-25T15:23:43;27.90;99.90
2723;DHT22;1369;53.216;10.396;2022-08-25T15:26:11;28.00;99.90
2723;DHT22;1369;53.216;10.396;2022-08-25T15:28:41;28.10;99.90
2723;DHT22;1369;53.216;10.396;2022-08-25T15:31:09;28.20;99.90
2723;DHT22;1369;53.216;10.396;2022-08-25T15:33:34;28.20;99.90
2723;DHT22;1369;53.216;10.396;2022-08-25T15:36:00;28.20;99.90
2723;DHT22;1369;53.216;10.396;2022-08-25T15:38:25;28.20;99.90
2723;DHT22;1369;53.216;10.396;2022-08-25T15:40:51;28.30;99.90
2723;DHT22;1369;53.216;10.396;2022-08-25T15:43:16;28.20;99.90
2723;DHT22;1369;53.216;10.396;2022-08-25T15:45:42;28.20;99.90
2723;DHT22;1369;53.216;10.396;2022-08-25T15:48:07;28.20;99.90
2723;DHT22;1369;53.216;10.396;2022-08-25T15:50:33;28.20;99.90
2723;DHT22;1369;53.216;10.396;2022-08-25T15:52:58;28.20;99.90
2723;DHT22;1369;53.216;10.396;2022-08-25T15:55:24;28.10;99.90
2723;DHT22;1369;53.216;10.396;2022-08-25T15:57:50;28.00;99.90
2723;DHT22;1369;53.216;10.396;2022-08-25T16:00:16;28.00;99.90
2723;DHT22;1369;53.216;10.396;2022-08-25T16:02:42;28.00;99.90
2723;DHT22;1369;53.216;10.396;2022-08-25T16:05:09;28.00;99.90
2723;DHT22;1369;53.216;10.396;2022-08-25T16:07:36;28.00;99.90
2723;DHT22;1369;53.216;10.396;2022-08-25T16:10:03;28.00;99.90
2723;DHT22;1369;53.216;10.396;2022-08-25T16:12:28;28.00;99.90
2723;DHT22;1369;53.216;10.396;2022-08-25T16:14:55;28.00;99.90
2723;DHT22;1369;53.216;10.396;2022-08-25T16:17:21;27.90;99.90
2723;DHT22;1369;53.216;10.396;2022-08-25T16:19:46;27.90;99.90
2723;DHT22;1369;53.216;10.396;2022-08-25T16:22:12;27.90;99.90
2723;DHT22;1369;53.216;10.396;2022-08-25T16:24:42;27.90;99.90
2723;DHT22;1369;53.216;10.396;2022-08-25T16:27:10;27.80;99.90
2723;DHT22;1369;53.216;10.396;2022-08-25T16:29:36;27.80;99.90
2723;DHT22;1369;53.216;10.396;2022-08-25T16:32:03;27.80;99.90
2723;DHT22;1369;53.216;10.396;2022-08-25T16:34:29;27.70;99.90
2723;DHT22;1369;53.216;10.396;2022-08-25T16:36:55;27.60;99.90
2723;DHT22;1369;53.216;10.396;2022-08-25T16:39:21;27.60;99.90
2723;DHT22;1369;53.216;10.396;2022-08-25T16:41:47;27.50;99.90
2723;DHT22;1369;53.216;10.396;2022-08-25T16:44:13;27.40;99.90
2723;DHT22;1369;53.216;10.396;2022-08-25T16:46:39;27.40;99.90
2723;DHT22;1369;53.216;10.396;2022-08-25T16:49:06;27.40;99.90
2723;DHT22;1369;53.216;10.396;2022-08-25T16:51:32;27.20;99.90
2723;DHT22;1369;53.216;10.396;2022-08-25T16:53:57;27.20;99.90
2723;DHT22;1369;53.216;10.396;2022-08-25T16:56:42;27.20;99.90
2723;DHT22;1369;53.216;10.396;2022-08-25T16:59:10;27.10;99.90
2723;DHT22;1369;53.216;10.396;2022-08-25T17:01:36;27.00;99.90
2723;DHT22;1369;53.216;10.396;2022-08-25T17:04:03;26.90;99.90
2723;DHT22;1369;53.216;10.396;2022-08-25T17:06:32;26.90;99.90
2723;DHT22;1369;53.216;10.396;2022-08-25T17:08:58;26.80;99.90
2723;DHT22;1369;53.216;10.396;2022-08-25T17:11:26;26.80;99.90
2723;DHT22;1369;53.216;10.396;2022-08-25T17:13:55;26.80;99.90
2723;DHT22;1369;53.216;10.396;2022-08-25T17:16:22;26.70;99.90
2723;DHT22;1369;53.216;10.396;2022-08-25T17:18:52;26.70;99.90
2723;DHT22;1369;53.216;10.396;2022-08-25T17:21:18;26.70;99.90
2723;DHT22;1369;53.216;10.396;2022-08-25T17:23:45;26.60;99.90
2723;DHT22;1369;53.216;10.396;2022-08-25T17:26:13;26.60;99.90
2723;DHT22;1369;53.216;10.396;2022-08-25T17:28:39;26.50;99.90
2723;DHT22;1369;53.216;10.396;2022-08-25T17:31:07;26.40;99.90
2723;DHT22;1369;53.216;10.396;2022-08-25T17:33:32;26.30;99.90
2723;DHT22;1369;53.216;10.396;2022-08-25T17:35:58;26.20;99.90
2723;DHT22;1369;53.216;10.396;2022-08-25T17:38:25;26.20;99.90
2723;DHT22;1369;53.216;10.396;2022-08-25T17:40:53;26.10;99.90
2723;DHT22;1369;53.216;10.396;2022-08-25T17:43:23;26.00;99.90